Time;durP1;ratioP1;P1;durP2;ratioP2;P2;SDS_P1;SDS_P2;PMS_P1;PMS_P2;Temp;Humidity;BMP_temperature;BMP_pressure;BME280_temperature;BME280_humidity;BME280_pressure;Samples;Min_cycle;Max_cycle;Signal;HPM_P1;HPM_P2
2023/04/12 00:00:18;;;;;;;0.40;0.40;;;22.00;35.40;;;;;;5092623;28;20393;-59
2023/04/12 00:02:45;;;;;;;0.32;0.32;;;22.00;35.40;;;;;;5092405;28;20093;-59
2023/04/12 00:05:12;;;;;;;0.70;0.52;;;22.00;35.40;;;;;;5091472;28;20055;-59
2023/04/12 00:07:41;;;;;;;0.45;0.45;;;22.00;35.40;;;;;;5092846;28;20048;-59
2023/04/12 00:10:09;;;;;;;0.40;0.40;;;22.00;35.40;;;;;;5092787;28;20052;-59
2023/04/12 00:12:36;;;;;;;0.57;0.57;;;22.00;35.40;;;;;;5093030;28;20477;-58
2023/04/12 00:15:03;;;;;;;1.35;0.75;;;22.00;35.40;;;;;;5092792;28;20139;-58
2023/04/12 00:17:33;;;;;;;;;;;22.00;35.40;;;;;;5092910;28;20044;-59
2023/04/12 00:20:10;;;;;;;0.60;0.40;;;22.00;35.50;;;;;;5092855;28;19920;-59
2023/04/12 00:22:38;;;;;;;0.43;0.30;;;22.00;35.50;;;;;;5092694;28;20048;-59
2023/04/12 00:25:05;;;;;;;0.60;0.60;;;22.00;35.50;;;;;;5091934;28;20405;-59
2023/04/12 00:27:33;;;;;;;0.30;0.25;;;21.90;35.50;;;;;;5077465;28;20057;-58
2023/04/12 00:30:00;;;;;;;0.43;0.38;;;22.00;35.50;;;;;;5072110;28;20055;-58
2023/04/12 00:32:27;;;;;;;0.30;0.30;;;22.00;35.50;;;;;;5071829;28;20118;-59
2023/04/12 00:34:54;;;;;;;0.80;0.38;;;22.00;35.50;;;;;;5072053;28;20050;-59
2023/04/12 00:37:22;;;;;;;0.40;0.40;;;22.00;35.50;;;;;;5072780;28;20048;-59
2023/04/12 00:39:49;;;;;;;0.50;0.50;;;22.00;35.50;;;;;;5074753;28;20496;-59
2023/04/12 00:42:16;;;;;;;0.30;0.30;;;22.00;35.50;;;;;;5092214;28;20507;-58
2023/04/12 00:44:43;;;;;;;0.38;0.38;;;22.00;35.50;;;;;;5092537;28;20135;-59
2023/04/12 00:47:11;;;;;;;0.40;0.40;;;22.00;35.50;;;;;;5093030;28;20062;-58
2023/04/12 00:49:38;;;;;;;0.20;0.20;;;22.00;35.50;;;;;;5092462;28;20591;-59
2023/04/12 00:52:08;;;;;;;0.30;0.30;;;22.00;35.50;;;;;;5090956;28;20076;-58
2023/04/12 00:54:36;;;;;;;0.50;0.50;;;22.00;35.50;;;;;;5091771;28;20050;-58
2023/04/12 00:57:03;;;;;;;0.43;0.43;;;22.00;35.50;;;;;;5091656;28;20048;-59
2023/04/12 00:59:30;;;;;;;0.38;0.20;;;22.00;35.50;;;;;;5092186;28;20138;-58
2023/04/12 01:01:59;;;;;;;0.50;0.50;;;22.00;35.50;;;;;;5092558;28;20052;-59
2023/04/12 01:04:27;;;;;;;0.22;0.22;;;22.00;35.50;;;;;;5091609;28;20063;-58
2023/04/12 01:07:24;;;;;;;0.30;0.30;;;22.00;35.50;;;;;;5093400;28;20066;-59
2023/04/12 01:10:31;;;;;;;0.40;0.40;;;22.00;35.60;;;;;;5095486;28;20050;-59
2023/04/12 01:13:17;;;;;;;0.32;0.30;;;21.90;35.50;;;;;;5095971;28;20048;-59
2023/04/12 01:15:53;;;;;;;0.30;0.30;;;21.90;35.50;;;;;;5095944;28;20044;-59
2023/04/12 01:18:26;;;;;;;0.20;0.20;;;21.90;35.50;;;;;;5096203;28;20044;-58
2023/04/12 01:21:06;;;;;;;0.22;0.22;;;21.90;35.50;;;;;;5095452;28;20144;-59
2023/04/12 01:23:57;;;;;;;1.13;0.20;;;21.90;35.50;;;;;;5094980;28;20044;-59
2023/04/12 01:26:35;;;;;;;0.20;0.20;;;21.90;36.10;;;;;;5095770;28;20052;-58
2023/04/12 01:29:10;;;;;;;0.38;0.20;;;21.90;35.60;;;;;;5095277;28;20050;-59
2023/04/12 01:31:40;;;;;;;0.57;0.30;;;21.90;35.60;;;;;;5095682;28;20044;-59
2023/04/12 01:34:11;;;;;;;0.30;0.30;;;21.90;35.60;;;;;;5095406;28;20052;-58
2023/04/12 01:36:38;;;;;;;;;;;21.90;35.60;;;;;;5095928;28;20040;-58
2023/04/12 01:39:07;;;;;;;0.25;0.20;;;21.90;35.60;;;;;;5095361;28;19927;-59
2023/04/12 01:41:40;;;;;;;0.20;0.20;;;21.90;35.60;;;;;;5094622;28;20083;-58
2023/04/12 01:44:07;;;;;;;0.30;0.30;;;21.80;35.60;;;;;;5094105;28;20093;-59
2023/04/12 01:46:36;;;;;;;0.82;0.28;;;21.80;35.60;;;;;;5094835;28;20052;-59
2023/04/12 01:49:04;;;;;;;0.30;0.20;;;21.80;35.60;;;;;;5094386;28;20079;-59
2023/04/12 01:51:58;;;;;;;0.20;0.20;;;21.90;35.70;;;;;;5094932;28;20134;-58
2023/04/12 01:54:29;;;;;;;0.30;0.30;;;21.80;35.60;;;;;;5095574;28;20131;-59
2023/04/12 01:56:57;;;;;;;;;;;21.80;35.60;;;;;;5095581;28;20047;-59
2023/04/12 01:59:38;;;;;;;0.25;0.25;;;21.80;35.60;;;;;;5094957;28;20300;-59
2023/04/12 02:02:07;;;;;;;0.20;0.20;;;21.80;35.60;;;;;;5094955;28;20048;-59
2023/04/12 02:04:36;;;;;;;0.43;0.20;;;21.80;35.60;;;;;;5095447;28;20400;-59
2023/04/12 02:07:03;;;;;;;0.20;0.20;;;21.80;35.60;;;;;;5094574;28;20044;-59
2023/04/12 02:09:38;;;;;;;0.30;0.20;;;21.80;35.60;;;;;;5093149;28;20499;-59
2023/04/12 02:12:06;;;;;;;0.38;0.38;;;21.80;35.60;;;;;;5094395;28;20048;-59
2023/04/12 02:14:33;;;;;;;0.20;0.20;;;21.80;35.60;;;;;;5093902;28;20071;-59
2023/04/12 02:17:01;;;;;;;0.30;0.30;;;21.80;35.60;;;;;;5094686;28;20054;-59
2023/04/12 02:19:28;;;;;;;0.20;0.20;;;21.80;35.60;;;;;;5092990;28;20447;-58
2023/04/12 02:21:56;;;;;;;0.20;0.20;;;21.80;35.60;;;;;;5093135;28;20051;-58
2023/04/12 02:24:23;;;;;;;0.20;0.20;;;21.80;35.70;;;;;;5093810;28;20046;-59
2023/04/12 02:26:50;;;;;;;0.20;0.20;;;21.80;35.60;;;;;;5094488;28;20389;-59
2023/04/12 02:29:17;;;;;;;0.30;0.30;;;21.80;35.60;;;;;;5093934;28;20046;-59
2023/04/12 02:31:45;;;;;;;0.10;0.10;;;21.80;35.60;;;;;;5094444;28;20041;-59
2023/04/12 02:34:14;;;;;;;1.75;0.20;;;21.70;36.20;;;;;;5093872;28;20056;-60
2023/04/12 02:36:46;;;;;;;0.10;0.10;;;21.70;35.60;;;;;;5094067;28;20052;-58
2023/04/12 02:39:13;;;;;;;0.20;0.20;;;21.70;35.60;;;;;;5093939;28;20851;-59
2023/04/12 02:41:40;;;;;;;0.22;0.22;;;21.70;35.60;;;;;;5094340;28;20050;-58
2023/04/12 02:44:07;;;;;;;0.00;0.00;;;21.70;35.60;;;;;;5093632;28;20040;-59
2023/04/12 02:46:34;;;;;;;0.20;0.20;;;21.70;35.60;;;;;;5093357;28;20048;-58
2023/04/12 02:49:01;;;;;;;0.15;0.15;;;21.70;35.60;;;;;;5093235;28;20047;-58
2023/04/12 02:51:28;;;;;;;0.20;0.20;;;21.70;35.60;;;;;;5094123;28;20516;-59
2023/04/12 02:53:56;;;;;;;0.10;0.10;;;21.80;35.60;;;;;;5094342;28;20453;-59
2023/04/12 02:56:23;;;;;;;0.30;0.30;;;21.80;35.60;;;;;;5083921;28;20060;-59
2023/04/12 02:58:50;;;;;;;0.20;0.20;;;21.70;35.50;;;;;;5073461;28;20543;-59
2023/04/12 03:01:18;;;;;;;0.10;0.10;;;21.80;35.60;;;;;;5073551;28;20052;-59
2023/04/12 03:03:45;;;;;;;0.25;0.10;;;21.80;35.60;;;;;;5074667;28;20045;-58
2023/04/12 03:06:13;;;;;;;0.77;0.22;;;21.80;35.60;;;;;;5073893;28;20102;-59
2023/04/12 03:08:40;;;;;;;0.20;0.17;;;21.80;35.60;;;;;;5073486;28;20127;-59
2023/04/12 03:11:07;;;;;;;0.20;0.20;;;21.80;35.50;;;;;;5072416;28;20135;-60
2023/04/12 03:13:34;;;;;;;0.35;0.20;;;21.80;35.60;;;;;;5072742;28;20497;-59
2023/04/12 03:16:22;;;;;;;0.30;0.30;;;21.80;35.50;;;;;;5072938;28;20127;-58
2023/04/12 03:18:50;;;;;;;0.65;0.25;;;21.80;35.60;;;;;;5073263;28;20056;-58
2023/04/12 03:21:18;;;;;;;0.22;0.15;;;21.70;35.50;;;;;;5071997;28;20409;-59
2023/04/12 03:23:45;;;;;;;0.15;0.15;;;21.70;35.50;;;;;;5072763;28;20094;-59
2023/04/12 03:26:12;;;;;;;0.20;0.20;;;21.70;35.50;;;;;;5073027;28;20126;-58
2023/04/12 03:28:40;;;;;;;0.47;0.17;;;21.70;35.50;;;;;;5072995;28;20090;-59
2023/04/12 03:31:07;;;;;;;0.20;0.20;;;21.70;35.50;;;;;;5072346;28;20057;-59
2023/04/12 03:33:34;;;;;;;0.25;0.20;;;21.70;35.50;;;;;;5072658;28;20044;-59
2023/04/12 03:36:01;;;;;;;0.20;0.20;;;21.70;35.50;;;;;;5072714;28;20044;-58
2023/04/12 03:38:29;;;;;;;0.28;0.20;;;21.70;35.50;;;;;;5073504;28;20068;-59
2023/04/12 03:40:56;;;;;;;0.17;0.17;;;21.70;35.50;;;;;;5073290;28;20178;-59
2023/04/12 03:43:24;;;;;;;0.10;0.10;;;21.70;35.50;;;;;;5073251;28;20115;-59
2023/04/12 03:45:51;;;;;;;0.20;0.20;;;21.70;35.50;;;;;;5072208;28;20048;-59
2023/04/12 03:48:18;;;;;;;0.10;0.10;;;21.70;35.50;;;;;;5072256;28;20492;-59
2023/04/12 03:50:47;;;;;;;0.10;0.10;;;21.70;35.50;;;;;;5088883;28;20051;-63
2023/04/12 03:53:14;;;;;;;0.20;0.10;;;21.70;35.50;;;;;;5085175;28;20128;-59
2023/04/12 03:55:42;;;;;;;2.28;0.80;;;21.70;35.50;;;;;;5086113;28;20051;-60
2023/04/12 03:58:12;;;;;;;0.40;0.17;;;21.70;35.50;;;;;;5093043;28;20051;-65
2023/04/12 04:00:39;;;;;;;0.47;0.30;;;21.60;35.50;;;;;;5077017;28;20055;-61
2023/04/12 04:03:07;;;;;;;0.10;0.10;;;21.60;35.50;;;;;;5072406;28;20048;-60
2023/04/12 04:05:35;;;;;;;0.38;0.20;;;21.70;35.50;;;;;;5072510;28;20051;-62
2023/04/12 04:08:03;;;;;;;0.73;0.32;;;21.60;36.00;;;;;;5075499;28;20045;-66
2023/04/12 04:10:30;;;;;;;0.40;0.40;;;21.60;35.50;;;;;;5073220;28;20495;-61
2023/04/12 04:12:58;;;;;;;0.20;0.20;;;21.60;35.50;;;;;;5076796;28;20036;-63
2023/04/12 04:15:26;;;;;;;0.17;0.10;;;21.60;35.50;;;;;;5078383;28;20075;-62
2023/04/12 04:17:53;;;;;;;0.52;0.20;;;21.60;35.50;;;;;;5081742;28;20048;-59
2023/04/12 04:20:20;;;;;;;0.10;0.10;;;21.60;35.50;;;;;;5076419;28;20520;-59
2023/04/12 04:22:47;;;;;;;0.28;0.20;;;21.60;35.40;;;;;;5078303;28;20048;-59
2023/04/12 04:25:15;;;;;;;0.20;0.20;;;21.60;35.40;;;;;;5090842;28;20054;-60
2023/04/12 04:27:46;;;;;;;0.20;0.20;;;21.60;35.50;;;;;;5092432;28;20100;-63
2023/04/12 04:30:14;;;;;;;;;;;21.60;35.50;;;;;;5092588;28;20629;-61
2023/04/12 04:32:42;;;;;;;0.20;0.10;;;21.60;35.40;;;;;;5084622;28;20395;-60
2023/04/12 04:35:09;;;;;;;1.50;0.30;;;21.60;35.40;;;;;;5076969;28;20094;-64
2023/04/12 04:37:37;;;;;;;0.40;0.30;;;21.60;35.30;;;;;;5088927;28;20052;-59
2023/04/12 04:40:07;;;;;;;0.20;0.20;;;21.60;35.00;;;;;;5091447;28;20040;-59
2023/04/12 04:42:35;;;;;;;0.50;0.20;;;21.60;34.90;;;;;;5088416;28;20067;-58
2023/04/12 04:45:11;;;;;;;1.25;0.32;;;21.60;34.90;;;;;;5084092;28;20044;-58
2023/04/12 04:47:41;;;;;;;0.90;0.40;;;21.60;34.90;;;;;;5095426;28;20550;-58
2023/04/12 04:50:09;;;;;;;0.20;0.20;;;21.60;34.90;;;;;;5096278;28;20067;-59
2023/04/12 04:52:36;;;;;;;0.32;0.32;;;21.60;34.90;;;;;;5075112;28;20052;-58
2023/04/12 04:55:04;;;;;;;1.75;0.40;;;21.60;34.70;;;;;;5074959;28;20052;-58
2023/04/12 04:57:35;;;;;;;0.28;0.28;;;21.60;34.70;;;;;;5085260;28;20550;-59
2023/04/12 05:00:09;;;;;;;0.32;0.20;;;21.70;34.60;;;;;;5084358;28;20049;-59
2023/04/12 05:02:42;;;;;;;1.80;0.38;;;21.70;34.50;;;;;;5088385;28;20048;-58
2023/04/12 05:05:21;;;;;;;0.30;0.30;;;21.70;34.40;;;;;;5084789;28;20055;-58
2023/04/12 05:07:49;;;;;;;0.25;0.25;;;21.80;34.40;;;;;;5091880;28;20530;-59
2023/04/12 05:10:16;;;;;;;0.30;0.30;;;21.80;34.30;;;;;;5082657;28;20040;-59
2023/04/12 05:12:43;;;;;;;0.30;0.30;;;21.80;34.20;;;;;;5087098;28;20040;-58
2023/04/12 05:15:10;;;;;;;0.32;0.30;;;21.90;34.20;;;;;;5092597;28;20146;-58
2023/04/12 05:17:38;;;;;;;0.28;0.28;;;21.90;34.10;;;;;;5084342;28;20040;-57
2023/04/12 05:20:07;;;;;;;1.00;0.30;;;21.90;34.00;;;;;;5088125;28;20134;-57
2023/04/12 05:22:34;;;;;;;0.52;0.20;;;22.00;34.00;;;;;;5090560;28;20047;-58
2023/04/12 05:25:02;;;;;;;0.30;0.30;;;22.00;33.90;;;;;;5088646;28;20064;-58
2023/04/12 05:27:30;;;;;;;0.20;0.20;;;22.10;33.80;;;;;;5083758;28;20087;-59
2023/04/12 05:29:58;;;;;;;0.80;0.30;;;22.10;33.70;;;;;;5080625;28;20046;-58
2023/04/12 05:32:25;;;;;;;0.43;0.28;;;22.20;33.70;;;;;;5086759;28;20044;-59
2023/04/12 05:34:52;;;;;;;0.43;0.28;;;22.20;33.60;;;;;;5082936;28;20495;-58
2023/04/12 05:37:19;;;;;;;0.30;0.22;;;22.20;33.50;;;;;;5082001;28;20131;-59
2023/04/12 05:39:47;;;;;;;0.63;0.40;;;22.20;33.40;;;;;;5084037;28;20058;-59
2023/04/12 05:42:14;;;;;;;1.20;0.40;;;22.30;33.40;;;;;;5081020;28;20052;-59
2023/04/12 05:44:44;;;;;;;2.05;0.52;;;22.30;33.40;;;;;;5081151;28;20044;-59
2023/04/12 05:47:13;;;;;;;0.90;0.40;;;22.30;33.30;;;;;;5080098;28;20056;-58
2023/04/12 05:49:40;;;;;;;0.93;0.50;;;22.40;33.30;;;;;;5082987;28;20047;-60
2023/04/12 05:52:07;;;;;;;0.38;0.38;;;22.40;33.30;;;;;;5083797;28;20071;-59
2023/04/12 05:54:34;;;;;;;0.43;0.43;;;22.40;33.20;;;;;;5071509;28;20040;-61
2023/04/12 05:57:01;;;;;;;0.85;0.50;;;22.50;33.20;;;;;;5077495;28;20471;-59
2023/04/12 05:59:29;;;;;;;2.20;0.30;;;22.50;33.30;;;;;;5072638;28;20075;-55
2023/04/12 06:01:58;;;;;;;1.67;0.40;;;22.50;33.40;;;;;;5078704;28;20036;-58
2023/04/12 06:04:25;;;;;;;0.73;0.38;;;22.60;33.40;;;;;;5078644;28;20080;-58
2023/04/12 06:07:16;;;;;;;0.20;0.20;;;22.60;33.40;;;;;;5085277;28;20040;-58
2023/04/12 06:09:43;;;;;;;1.30;0.40;;;22.70;33.70;;;;;;5080103;28;20047;-58
2023/04/12 06:12:11;;;;;;;0.60;0.60;;;22.70;33.70;;;;;;5081151;28;20138;-57
2023/04/12 06:14:38;;;;;;;0.82;0.50;;;22.70;33.60;;;;;;5077684;28;20063;-58
2023/04/12 06:17:05;;;;;;;1.10;0.28;;;22.80;33.50;;;;;;5079441;28;20048;-59
2023/04/12 06:19:32;;;;;;;1.38;0.75;;;22.80;33.50;;;;;;5080634;28;20101;-59
2023/04/12 06:22:00;;;;;;;0.50;0.50;;;22.90;33.50;;;;;;5073493;28;20055;-61
2023/04/12 06:24:27;;;;;;;2.22;0.50;;;22.90;33.50;;;;;;5073896;28;20520;-60
2023/04/12 06:26:54;;;;;;;0.82;0.35;;;23.00;33.60;;;;;;5076294;28;20132;-58
2023/04/12 06:29:21;;;;;;;2.33;0.32;;;23.10;33.50;;;;;;5077506;28;20135;-58
2023/04/12 06:31:49;;;;;;;1.55;0.60;;;23.10;33.40;;;;;;5080297;28;20055;-60
2023/04/12 06:34:16;;;;;;;0.52;0.30;;;23.10;33.40;;;;;;5082108;28;20044;-57
2023/04/12 06:36:46;;;;;;;1.65;0.73;;;23.20;33.40;;;;;;5081821;28;20052;-59
2023/04/12 06:39:15;;;;;;;1.25;0.52;;;23.30;33.50;;;;;;5079469;28;20064;-58
2023/04/12 06:41:49;;;;;;;5.75;0.95;;;23.30;33.50;;;;;;5079805;28;20064;-58
2023/04/12 06:44:16;;;;;;;1.05;0.40;;;23.30;33.50;;;;;;5079301;28;20079;-57
2023/04/12 06:46:43;;;;;;;4.55;0.60;;;23.30;33.50;;;;;;5077947;28;20127;-58
2023/04/12 06:49:11;;;;;;;0.40;0.40;;;23.40;33.60;;;;;;5081507;28;20289;-58
2023/04/12 06:51:38;;;;;;;1.98;0.40;;;23.40;33.30;;;;;;5074606;28;20083;-59
2023/04/12 06:54:05;;;;;;;0.63;0.30;;;23.40;33.00;;;;;;5080498;28;20052;-58
2023/04/12 06:56:33;;;;;;;1.35;0.30;;;23.50;32.80;;;;;;5080263;28;20054;-58
2023/04/12 06:59:00;;;;;;;2.20;0.45;;;23.50;32.80;;;;;;5077861;28;20492;-58
2023/04/12 07:01:27;;;;;;;0.88;0.60;;;23.50;32.60;;;;;;5079391;28;20134;-58
2023/04/12 07:03:55;;;;;;;2.50;0.38;;;23.60;32.50;;;;;;5079190;28;20130;-59
2023/04/12 07:06:22;;;;;;;2.53;0.30;;;23.60;32.40;;;;;;5082827;28;20468;-59
2023/04/12 07:08:53;;;;;;;1.33;0.75;;;23.60;32.30;;;;;;5079703;28;20048;-59
2023/04/12 07:11:24;;;;;;;0.43;0.30;;;23.60;32.30;;;;;;5079993;28;20051;-58
2023/04/12 07:13:51;;;;;;;4.75;0.68;;;23.60;32.30;;;;;;5078343;28;20048;-57
2023/04/12 07:16:18;;;;;;;0.95;0.30;;;23.70;32.30;;;;;;5080443;28;20044;-57
2023/04/12 07:18:45;;;;;;;0.55;0.30;;;23.70;32.30;;;;;;5080495;28;20123;-57
2023/04/12 07:21:13;;;;;;;0.50;0.50;;;23.70;32.30;;;;;;5079917;28;20047;-58
2023/04/12 07:23:40;;;;;;;2.65;0.52;;;23.80;32.20;;;;;;5075498;28;20071;-57
2023/04/12 07:26:07;;;;;;;2.22;0.30;;;23.80;32.10;;;;;;5082727;28;20350;-58
2023/04/12 07:28:35;;;;;;;0.73;0.50;;;23.90;32.00;;;;;;5082921;28;20058;-58
2023/04/12 07:31:06;;;;;;;0.50;0.30;;;23.90;32.00;;;;;;5079038;28;20113;-59
2023/04/12 07:33:34;;;;;;;3.67;0.30;;;23.90;32.00;;;;;;5081909;28;20079;-59
2023/04/12 07:36:03;;;;;;;1.15;0.40;;;23.90;32.00;;;;;;5075576;28;20076;-59
2023/04/12 07:38:30;;;;;;;0.30;0.30;;;23.90;31.90;;;;;;5077047;28;20067;-58
2023/04/12 07:40:57;;;;;;;3.20;0.40;;;23.90;31.80;;;;;;5080049;28;20048;-59
2023/04/12 07:43:25;;;;;;;1.70;0.63;;;23.90;31.70;;;;;;5081571;28;20052;-58
2023/04/12 07:45:55;;;;;;;0.52;0.52;;;23.90;31.80;;;;;;5080646;28;20537;-60
2023/04/12 07:48:23;;;;;;;;;;;24.00;31.80;;;;;;5080663;28;20063;-60
2023/04/12 07:50:50;;;;;;;0.47;0.45;;;24.00;31.80;;;;;;5079670;28;19978;-59
2023/04/12 07:53:30;;;;;;;2.72;0.63;;;24.00;31.70;;;;;;5082971;28;20051;-59
2023/04/12 07:55:57;;;;;;;0.82;0.30;;;24.00;31.70;;;;;;5080994;28;20056;-59
2023/04/12 07:58:24;;;;;;;0.80;0.50;;;24.00;31.70;;;;;;5080486;28;20151;-58
2023/04/12 08:00:52;;;;;;;0.50;0.50;;;24.00;31.70;;;;;;5079816;28;20056;-58
2023/04/12 08:03:19;;;;;;;0.80;0.40;;;24.00;31.60;;;;;;5081112;28;20056;-58
2023/04/12 08:05:52;;;;;;;2.03;0.63;;;24.00;31.50;;;;;;5081334;28;20048;-58
2023/04/12 08:08:20;;;;;;;1.38;0.50;;;24.00;31.50;;;;;;5079079;28;20048;-58
2023/04/12 08:10:49;;;;;;;0.65;0.50;;;24.00;31.50;;;;;;5078800;28;20488;-58
2023/04/12 08:13:16;;;;;;;2.55;0.70;;;24.00;31.50;;;;;;5081852;28;20072;-58
2023/04/12 08:15:45;;;;;;;1.27;0.60;;;24.00;31.50;;;;;;5075714;28;20036;-58
2023/04/12 08:18:13;;;;;;;0.95;0.52;;;24.10;31.50;;;;;;5085870;28;20078;-58
2023/04/12 08:20:42;;;;;;;0.77;0.77;;;24.10;31.60;;;;;;5085291;28;20055;-58
2023/04/12 08:23:10;;;;;;;1.37;0.47;;;24.10;31.50;;;;;;5086057;28;20060;-59
2023/04/12 08:25:38;;;;;;;3.85;0.90;;;24.10;31.50;;;;;;5085365;28;20044;-58
2023/04/12 08:28:08;;;;;;;0.95;0.57;;;24.10;31.60;;;;;;5082699;28;20048;-56
2023/04/12 08:30:36;;;;;;;1.13;0.47;;;24.20;31.60;;;;;;5085985;28;20532;-58
2023/04/12 08:33:03;;;;;;;0.93;0.68;;;24.20;31.70;;;;;;5085008;28;20039;-59
2023/04/12 08:35:30;;;;;;;0.50;0.50;;;24.20;31.80;;;;;;5080065;28;20083;-59
2023/04/12 08:38:05;;;;;;;2.10;0.43;;;24.30;31.90;;;;;;5084542;28;20496;-57
2023/04/12 08:40:33;;;;;;;0.50;0.50;;;24.30;31.90;;;;;;5084678;28;20051;-58
2023/04/12 08:43:04;;;;;;;1.83;0.50;;;24.30;31.80;;;;;;5086061;28;20107;-60
2023/04/12 08:45:34;;;;;;;0.43;0.43;;;24.30;31.60;;;;;;5082480;28;20048;-58
2023/04/12 08:48:04;;;;;;;1.77;0.63;;;24.40;31.50;;;;;;5079766;28;20080;-59
2023/04/12 08:50:32;;;;;;;0.75;0.57;;;24.40;30.80;;;;;;5080424;28;20522;-58
2023/04/12 08:53:00;;;;;;;1.05;0.70;;;24.30;29.10;;;;;;5084674;28;20043;-58
2023/04/12 08:55:27;;;;;;;2.15;0.60;;;24.30;29.50;;;;;;5081740;28;20044;-58
2023/04/12 08:57:57;;;;;;;1.00;0.50;;;24.20;29.70;;;;;;5081616;28;20048;-57
2023/04/12 09:00:25;;;;;;;;;;;24.20;29.90;;;;;;5085671;28;20131;-57
2023/04/12 09:02:52;;;;;;;2.15;0.57;;;24.20;30.00;;;;;;5083385;28;19924;-57
2023/04/12 09:05:25;;;;;;;0.85;0.57;;;24.30;30.00;;;;;;5084100;28;20071;-57
2023/04/12 09:07:53;;;;;;;1.85;0.30;;;24.30;30.10;;;;;;5083046;28;20109;-58
2023/04/12 09:10:35;;;;;;;1.88;0.85;;;24.40;30.20;;;;;;5081027;28;20048;-58
2023/04/12 09:13:05;;;;;;;2.25;0.50;;;24.40;30.10;;;;;;5082968;28;20049;-59
2023/04/12 09:15:33;;;;;;;1.50;0.70;;;24.50;30.10;;;;;;5083625;28;20089;-58
2023/04/12 09:18:12;;;;;;;0.75;0.52;;;24.50;30.10;;;;;;5083354;28;20489;-58
2023/04/12 09:20:43;;;;;;;0.43;0.30;;;24.50;30.00;;;;;;5082042;28;20497;-57
2023/04/12 09:23:23;;;;;;;2.55;0.32;;;24.60;30.20;;;;;;5079809;28;20532;-57
2023/04/12 09:25:51;;;;;;;2.88;0.30;;;24.60;30.00;;;;;;5082541;28;20048;-57
2023/04/12 09:28:25;;;;;;;0.95;0.52;;;24.60;30.00;;;;;;5083152;28;20420;-58
2023/04/12 09:30:54;;;;;;;3.35;0.50;;;24.60;30.00;;;;;;5081359;28;20052;-58
2023/04/12 09:33:35;;;;;;;0.70;0.63;;;24.70;30.00;;;;;;5082578;28;20127;-57
2023/04/12 09:36:12;;;;;;;;;;;24.70;30.00;;;;;;5081399;28;20069;-59
2023/04/12 09:38:56;;;;;;;0.88;0.63;;;24.70;30.00;;;;;;5082272;28;19928;-58
2023/04/12 09:41:26;;;;;;;0.50;0.45;;;24.70;30.00;;;;;;5083262;28;20144;-57
2023/04/12 09:43:53;;;;;;;0.88;0.50;;;24.70;30.00;;;;;;5082620;28;20671;-57
2023/04/12 09:46:21;;;;;;;0.73;0.30;;;24.70;29.90;;;;;;5079974;28;20048;-59
2023/04/12 09:48:51;;;;;;;1.33;0.40;;;24.70;29.90;;;;;;5080089;28;20062;-58
2023/04/12 09:51:30;;;;;;;0.43;0.40;;;24.70;29.90;;;;;;5078358;28;20076;-58
2023/04/12 09:54:00;;;;;;;0.63;0.45;;;24.70;29.70;;;;;;5083840;28;20063;-57
2023/04/12 09:56:32;;;;;;;4.47;0.70;;;24.70;29.70;;;;;;5083005;28;20059;-58
2023/04/12 09:59:08;;;;;;;1.52;0.40;;;24.70;29.70;;;;;;5085017;28;20492;-58
2023/04/12 10:01:38;;;;;;;0.63;0.50;;;24.70;29.60;;;;;;5082477;28;20076;-58
2023/04/12 10:04:07;;;;;;;0.40;0.40;;;24.80;29.70;;;;;;5082959;28;20378;-58
2023/04/12 10:06:36;;;;;;;0.85;0.50;;;24.80;29.60;;;;;;5084735;28;20048;-58
2023/04/12 10:09:05;;;;;;;0.47;0.30;;;24.80;29.60;;;;;;5084233;28;20111;-58
2023/04/12 10:11:33;;;;;;;1.00;0.50;;;24.80;29.60;;;;;;5084769;28;20074;-58
2023/04/12 10:14:05;;;;;;;0.82;0.38;;;24.80;29.50;;;;;;5083044;28;20102;-58
2023/04/12 10:16:33;;;;;;;3.45;0.40;;;24.80;29.70;;;;;;5083050;28;20135;-57
2023/04/12 10:19:02;;;;;;;1.30;0.57;;;24.90;29.70;;;;;;5083846;28;20044;-58
2023/04/12 10:21:30;;;;;;;2.20;0.38;;;24.90;29.60;;;;;;5087927;28;20040;-57
2023/04/12 10:23:58;;;;;;;3.85;0.50;;;24.80;29.50;;;;;;5082355;28;20523;-58
2023/04/12 10:26:25;;;;;;;1.00;0.30;;;24.90;29.40;;;;;;5074403;28;20098;-58
2023/04/12 10:29:31;;;;;;;1.35;0.43;;;24.90;29.30;;;;;;5081372;28;20153;-58
2023/04/12 10:32:21;;;;;;;2.15;1.00;;;24.90;29.20;;;;;;5084204;28;20523;-58
2023/04/12 10:34:52;;;;;;;;;;;24.90;29.30;;;;;;5083435;28;20079;-58
2023/04/12 10:37:20;;;;;;;0.90;0.60;;;24.90;29.30;;;;;;5083905;28;19966;-58
2023/04/12 10:39:54;;;;;;;0.85;0.55;;;24.90;29.30;;;;;;5081184;28;20105;-58
2023/04/12 10:42:29;;;;;;;0.77;0.40;;;24.90;29.30;;;;;;5085421;28;20082;-58
2023/04/12 10:45:35;;;;;;;0.30;0.30;;;24.90;29.20;;;;;;5084360;28;20504;-58
2023/04/12 10:48:03;;;;;;;0.45;0.35;;;24.90;29.20;;;;;;5082885;28;20400;-58
2023/04/12 10:50:34;;;;;;;0.35;0.20;;;25.00;29.20;;;;;;5081186;28;20058;-58
2023/04/12 10:53:21;;;;;;;0.40;0.40;;;25.00;29.20;;;;;;5075993;28;20052;-58
2023/04/12 10:55:48;;;;;;;0.22;0.20;;;25.00;29.00;;;;;;5080039;28;20518;-58
2023/04/12 10:58:55;;;;;;;0.70;0.52;;;25.10;29.00;;;;;;5082555;28;20079;-59
2023/04/12 11:01:30;;;;;;;1.00;0.25;;;25.10;29.00;;;;;;5037214;28;20416;-59
2023/04/12 11:04:19;;;;;;;1.13;0.20;;;25.10;29.20;;;;;;5037115;28;20128;-59
2023/04/12 11:06:55;;;;;;;2.17;0.40;;;25.20;29.30;;;;;;5037045;28;20053;-60
2023/04/12 11:09:44;;;;;;;1.05;0.35;;;25.20;29.20;;;;;;5035634;28;20502;-59
2023/04/12 11:12:14;;;;;;;1.00;0.40;;;25.30;29.00;;;;;;5038045;28;20057;-59
2023/04/12 11:14:50;;;;;;;0.40;0.30;;;25.30;29.10;;;;;;5035754;28;20050;-58
2023/04/12 11:17:20;;;;;;;0.32;0.20;;;25.40;29.10;;;;;;5037023;28;20046;-56
2023/04/12 11:19:55;;;;;;;0.73;0.25;;;25.40;29.20;;;;;;5034647;28;20143;-56
2023/04/12 11:22:26;;;;;;;2.85;0.57;;;25.40;29.20;;;;;;5037548;28;20053;-57
2023/04/12 11:24:55;;;;;;;0.63;0.30;;;25.50;29.20;;;;;;5038877;28;20056;-59
2023/04/12 11:27:25;;;;;;;0.32;0.25;;;25.50;29.10;;;;;;5037769;28;20049;-58
2023/04/12 11:29:55;;;;;;;0.23;0.23;;;25.50;29.00;;;;;;5033846;28;20051;-58
2023/04/12 11:32:23;;;;;;;;;;;25.50;28.70;;;;;;5044697;28;20095;-58
2023/04/12 11:34:53;;;;;;;0.50;0.38;;;25.50;28.30;;;;;;5033572;28;20307;-58
2023/04/12 11:37:21;;;;;;;2.38;0.38;;;25.50;28.10;;;;;;5030915;28;20307;-58
2023/04/12 11:39:51;;;;;;;2.08;0.30;;;25.50;28.20;;;;;;5035369;28;20421;-58
2023/04/12 11:42:22;;;;;;;0.68;0.40;;;25.50;28.20;;;;;;5039032;28;20115;-58
2023/04/12 11:44:50;;;;;;;1.73;0.52;;;25.50;28.30;;;;;;5037417;28;20049;-58
2023/04/12 11:47:22;;;;;;;0.90;0.28;;;25.50;28.40;;;;;;5054865;28;20080;-58
2023/04/12 11:49:52;;;;;;;2.00;0.17;;;25.60;28.30;;;;;;5036630;28;20057;-58
2023/04/12 11:52:21;;;;;;;1.65;0.40;;;25.60;28.30;;;;;;5035797;28;20096;-59
2023/04/12 11:54:50;;;;;;;1.40;0.30;;;25.60;28.30;;;;;;5036296;28;20049;-57
2023/04/12 11:57:17;;;;;;;5.18;0.28;;;25.60;28.30;;;;;;5038547;28;20049;-59
2023/04/12 11:59:47;;;;;;;0.95;0.85;;;25.60;28.30;;;;;;5035920;28;20439;-59
2023/04/12 12:02:16;;;;;;;0.68;0.32;;;25.60;28.10;;;;;;5037313;28;20384;-59
2023/04/12 12:04:50;;;;;;;0.68;0.40;;;25.60;27.90;;;;;;5032676;28;20045;-59
2023/04/12 12:07:19;;;;;;;0.73;0.40;;;25.60;27.70;;;;;;5035045;28;20084;-58
2023/04/12 12:09:49;;;;;;;2.28;0.50;;;25.60;27.60;;;;;;5034906;28;20061;-58
2023/04/12 12:12:17;;;;;;;2.58;0.40;;;25.60;27.50;;;;;;5027516;28;20045;-59
2023/04/12 12:14:48;;;;;;;2.80;0.30;;;25.60;27.40;;;;;;5021612;28;20042;-59
2023/04/12 12:17:16;;;;;;;2.72;0.50;;;25.60;27.40;;;;;;5023247;28;20517;-59
2023/04/12 12:19:44;;;;;;;1.02;0.47;;;25.50;27.20;;;;;;5022434;28;20072;-59
2023/04/12 12:22:16;;;;;;;2.83;0.40;;;25.50;26.90;;;;;;5021550;28;20465;-58
2023/04/12 12:24:50;;;;;;;1.10;0.40;;;25.50;27.20;;;;;;5020333;28;20049;-58
2023/04/12 12:27:20;;;;;;;0.70;0.30;;;25.50;27.40;;;;;;5023823;28;20045;-58
2023/04/12 12:29:50;;;;;;;;;;;25.50;27.10;;;;;;5009265;28;20064;-59
2023/04/12 12:32:18;;;;;;;3.03;0.30;;;25.60;26.90;;;;;;5022837;28;20393;-58
2023/04/12 12:34:51;;;;;;;1.23;0.50;;;25.50;26.80;;;;;;5021940;28;20050;-59
2023/04/12 12:37:26;;;;;;;2.00;0.40;;;25.60;26.90;;;;;;5023565;28;20132;-59
2023/04/12 12:40:15;;;;;;;0.57;0.30;;;25.60;27.00;;;;;;5036937;28;20103;-59
2023/04/12 12:42:53;;;;;;;1.10;0.60;;;25.60;27.00;;;;;;5022793;28;20047;-59
2023/04/12 12:45:22;;;;;;;0.57;0.55;;;25.70;27.10;;;;;;5023381;28;20048;-59
2023/04/12 12:48:01;;;;;;;0.65;0.30;;;25.70;27.00;;;;;;5024413;28;20140;-58
2023/04/12 12:50:32;;;;;;;1.13;0.50;;;25.70;26.90;;;;;;5025100;28;20047;-59
2023/04/12 12:53:00;;;;;;;;;;;25.70;26.80;;;;;;5023343;28;20096;-60
2023/04/12 12:55:29;;;;;;;3.65;0.43;;;25.70;26.70;;;;;;5004959;28;19925;-58
2023/04/12 12:57:58;;;;;;;0.98;0.47;;;25.70;26.60;;;;;;5022081;28;20100;-61
2023/04/12 13:00:35;;;;;;;1.08;0.32;;;25.70;26.70;;;;;;5023778;28;20069;-60
2023/04/12 13:03:02;;;;;;;0.75;0.43;;;25.70;27.20;;;;;;5025316;28;20045;-59
2023/04/12 13:05:30;;;;;;;1.15;0.35;;;25.70;27.00;;;;;;5021190;28;20061;-59